Time;durP1;ratioP1;P1;durP2;ratioP2;P2;SDS_P1;SDS_P2;PMS_P1;PMS_P2;Temp;Humidity;BMP_temperature;BMP_pressure;BME280_temperature;BME280_humidity;BME280_pressure;Samples;Min_cycle;Max_cycle;Signal;HPM_P1;HPM_P2
2023/06/16 00:02:07;;;;;;;;;9.75;9.75;;;;;26.97;31.23;101226.09;4960153;28;48152;-44
2023/06/16 00:04:32;;;;;;;;;10.25;10.25;;;;;27.03;31.32;101233.63;4960263;28;45343;-44
2023/06/16 00:06:58;;;;;;;;;12.75;9.50;;;;;27.03;31.50;101230.97;4960148;28;45450;-45
2023/06/16 00:09:25;;;;;;;;;9.00;9.00;;;;;27.01;31.34;101232.91;4960487;28;45688;-45
2023/06/16 00:11:51;;;;;;;;;9.50;8.00;;;;;27.04;31.48;101235.31;4959892;28;46907;-44
2023/06/16 00:14:16;;;;;;;;;9.25;9.00;;;;;27.05;31.10;101241.47;4960032;28;45418;-44
2023/06/16 00:16:43;;;;;;;;;10.00;10.00;;;;;27.03;31.33;101230.97;4960341;28;45422;-44
2023/06/16 00:19:08;;;;;;;;;10.00;8.75;;;;;27.05;31.67;101241.47;4960163;28;45276;-45
2023/06/16 00:21:37;;;;;;;;;9.25;9.25;;;;;27.05;31.17;101242.34;4959809;28;46402;-46
2023/06/16 00:24:04;;;;;;;;;11.50;11.00;;;;;27.04;31.45;101237.13;4959772;28;45990;-44
2023/06/16 00:26:30;;;;;;;;;10.00;10.00;;;;;27.04;31.31;101239.78;4959897;28;45249;-43
2023/06/16 00:28:55;;;;;;;;;9.50;9.50;;;;;27.03;31.15;101238.09;4960182;28;45558;-47
2023/06/16 00:31:21;;;;;;;;;9.75;8.75;;;;;27.01;31.63;101240.88;4959931;28;45446;-43
2023/06/16 00:33:46;;;;;;;;;10.00;8.50;;;;;27.01;31.52;101236.38;4959807;28;45433;-43
2023/06/16 00:36:11;;;;;;;;;9.00;7.00;;;;;27.00;31.40;101236.50;4960266;28;45343;-45
2023/06/16 00:38:36;;;;;;;;;9.50;9.50;;;;;26.98;31.52;101234.00;4960071;28;45370;-43
2023/06/16 00:41:02;;;;;;;;;9.00;9.00;;;;;26.95;31.78;101228.88;4942261;28;47878;-43
2023/06/16 00:43:27;;;;;;;;;8.75;7.50;;;;;26.98;31.39;101239.31;4942141;28;45331;-43
2023/06/16 00:45:53;;;;;;;;;9.50;9.50;;;;;26.96;31.71;101238.56;4959638;28;45211;-43
2023/06/16 00:48:19;;;;;;;;;9.00;9.00;;;;;26.96;31.73;101241.22;4959832;28;45441;-43
2023/06/16 00:50:45;;;;;;;;;8.50;8.50;;;;;26.96;31.51;101238.56;4959896;28;45267;-42
2023/06/16 00:53:11;;;;;;;;;9.50;8.75;;;;;26.96;31.59;101240.38;4940942;28;45796;-43
2023/06/16 00:55:37;;;;;;;;;3.25;3.25;;;;;26.94;31.73;101229.03;4959742;28;45383;-43
2023/06/16 00:58:03;;;;;;;;;10.50;8.25;;;;;26.95;31.47;101238.69;4959796;28;45343;-42
2023/06/16 01:00:32;;;;;;;;;10.50;10.00;;;;;26.97;31.79;101239.41;4959221;28;45448;-44
2023/06/16 01:02:57;;;;;;;;;10.50;9.00;;;;;26.98;31.39;101241.09;4959363;28;46293;-42
2023/06/16 01:05:24;;;;;;;;;10.00;9.00;;;;;26.98;31.51;101241.09;4959317;28;45327;-42
2023/06/16 01:07:50;;;;;;;;;8.25;7.75;;;;;26.97;31.69;101236.75;4959635;28;45596;-44
2023/06/16 01:10:32;;;;;;;;;7.25;7.25;;;;;26.94;31.68;101234.34;4959469;28;46395;-42
2023/06/16 01:13:30;;;;;;;;;12.00;9.00;;;;;26.98;31.85;101238.44;4959264;28;46454;-42
2023/06/16 01:16:01;;;;;;;;;9.75;9.75;;;;;26.97;31.57;101228.75;4942096;28;45587;-44
2023/06/16 01:18:27;;;;;;;;;10.00;9.25;;;;;26.97;31.82;101232.28;4959462;28;45480;-43
2023/06/16 01:20:59;;;;;;;;;9.50;9.50;;;;;26.97;32.08;101226.97;4941713;28;47216;-47
2023/06/16 01:24:05;;;;;;;;;8.25;8.25;;;;;26.97;31.53;101234.09;4959182;28;45437;-42
2023/06/16 01:26:34;;;;;;;;;9.50;9.25;;;;;26.97;31.78;101236.75;4941785;28;45385;-43
2023/06/16 01:29:02;;;;;;;;;10.50;8.50;;;;;26.93;31.73;101224.66;4959063;28;45343;-45
2023/06/16 01:31:31;;;;;;;;;8.75;7.25;;;;;26.95;32.01;101228.06;4958762;28;47441;-46
2023/06/16 01:33:57;;;;;;;;;10.50;8.75;;;;;26.93;31.71;101224.66;4958690;28;45452;-44
2023/06/16 01:36:24;;;;;;;;;8.50;8.50;;;;;26.95;31.71;101228.06;4941531;28;45292;-41
2023/06/16 01:38:50;;;;;;;;;8.75;8.75;;;;;26.95;32.00;101226.22;4959202;28;45621;-46
2023/06/16 01:41:19;;;;;;;;;9.00;9.00;;;;;26.93;31.98;101224.66;4959067;28;46224;-45
2023/06/16 01:43:47;;;;;;;;;13.25;11.25;;;;;26.95;32.09;101222.75;4959056;28;45724;-44
2023/06/16 01:46:13;;;;;;;;;11.25;9.50;;;;;26.95;31.85;101212.09;4958836;28;45343;-46
2023/06/16 01:48:39;;;;;;;;;10.00;8.75;;;;;26.94;31.94;101224.53;4959070;28;45370;-43
2023/06/16 01:51:05;;;;;;;;;10.75;8.75;;;;;26.94;31.71;101221.88;4958534;28;45394;-45
2023/06/16 01:53:30;;;;;;;;;8.50;8.25;;;;;26.95;32.04;101228.88;4958704;28;45801;-44
2023/06/16 01:55:55;;;;;;;;;9.50;9.00;;;;;26.96;31.72;101235.03;4958808;28;45334;-44
2023/06/16 01:58:23;;;;;;;;;10.75;9.75;;;;;26.95;31.89;101230.72;4958813;28;45233;-46
2023/06/16 02:01:07;;;;;;;;;9.00;8.75;;;;;26.95;32.03;101233.38;4958662;28;46810;-42
2023/06/16 02:03:46;;;;;;;;;8.00;8.00;;;;;26.94;31.98;101232.50;4958412;28;45347;-44
2023/06/16 02:06:21;;;;;;;;;8.25;7.75;;;;;26.93;32.05;101235.31;4958146;28;45425;-46
2023/06/16 02:08:50;;;;;;;;;8.25;8.25;;;;;26.94;31.90;101235.19;4959113;28;45515;-45
2023/06/16 02:11:15;;;;;;;;;7.50;6.50;;;;;26.95;31.86;101228.88;4958531;28;46318;-45
2023/06/16 02:13:43;;;;;;;;;9.00;8.00;;;;;26.95;32.01;101228.88;4958257;28;45177;-44
2023/06/16 02:16:09;;;;;;;;;13.00;10.25;;;;;26.94;32.10;101231.69;4958470;28;45347;-47
2023/06/16 02:18:34;;;;;;;;;9.00;9.00;;;;;26.94;32.11;101234.34;4958519;28;45369;-42
2023/06/16 02:21:00;;;;;;;;;8.25;6.75;;;;;26.95;31.92;101228.88;4958193;28;45380;-45
2023/06/16 02:23:25;;;;;;;;;10.00;8.75;;;;;26.96;31.75;101232.38;4958135;28;45369;-44
2023/06/16 02:25:51;;;;;;;;;8.25;8.25;;;;;26.96;31.91;101232.38;4958612;28;45419;-45
2023/06/16 02:28:17;;;;;;;;;12.25;10.25;;;;;26.94;31.84;101234.34;4958663;28;45656;-46
2023/06/16 02:30:42;;;;;;;;;9.25;9.25;;;;;26.94;31.82;101229.03;4958062;28;46226;-44
2023/06/16 02:33:08;;;;;;;;;9.25;8.50;;;;;26.96;31.91;101235.91;4958105;28;45458;-45
2023/06/16 02:35:33;;;;;;;;;12.50;10.00;;;;;26.96;31.64;101235.03;4958176;28;45424;-43
2023/06/16 02:38:00;;;;;;;;;9.75;8.25;;;;;26.95;31.98;101228.06;4958259;28;45215;-44
2023/06/16 02:40:25;;;;;;;;;11.25;9.00;;;;;26.94;32.32;101227.19;4957714;28;46893;-43
2023/06/16 02:42:51;;;;;;;;;8.00;7.00;;;;;26.96;32.02;101227.94;4957367;28;45263;-44
2023/06/16 02:45:16;;;;;;;;;11.25;9.50;;;;;26.97;32.09;101234.09;4957928;28;45171;-44
2023/06/16 02:47:41;;;;;;;;;9.25;8.50;;;;;26.96;32.00;101225.28;4958122;28;45248;-45
2023/06/16 02:50:08;;;;;;;;;9.25;8.00;;;;;26.97;32.07;101226.09;4957767;28;45500;-44
2023/06/16 02:52:33;;;;;;;;;10.00;10.00;;;;;26.96;31.97;101219.94;4957648;28;45485;-46
2023/06/16 02:55:00;;;;;;;;;9.25;8.25;;;;;26.96;32.20;101224.41;4957888;28;45440;-42
2023/06/16 02:57:25;;;;;;;;;9.75;9.00;;;;;26.95;32.51;101228.06;4940551;28;45573;-42
2023/06/16 02:59:51;;;;;;;;;11.00;9.00;;;;;26.94;32.08;101227.19;4957734;28;46281;-45
2023/06/16 03:02:16;;;;;;;;;7.25;7.25;;;;;26.92;32.30;101222.97;4957320;28;45374;-44
2023/06/16 03:04:42;;;;;;;;;12.75;7.75;;;;;26.95;32.13;101222.75;4957672;28;45393;-42
2023/06/16 03:07:07;;;;;;;;;9.25;8.00;;;;;26.89;32.13;101223.19;4957695;28;45349;-46
2023/06/16 03:09:33;;;;;;;;;9.00;9.00;;;;;26.91;32.21;101223.94;4957477;28;45490;-45
2023/06/16 03:11:58;;;;;;;;;11.00;10.00;;;;;26.90;32.19;101219.56;4939976;28;45456;-43
2023/06/16 03:14:25;;;;;;;;;11.25;11.25;;;;;26.91;32.00;101224.75;4940411;28;45386;-42
2023/06/16 03:16:50;;;;;;;;;13.75;9.25;;;;;26.89;32.21;101217.88;4956944;28;45280;-42
2023/06/16 03:19:17;;;;;;;;;9.00;9.00;;;;;26.92;32.29;101225.63;4957243;28;46118;-44
2023/06/16 03:21:45;;;;;;;;;9.50;9.00;;;;;26.88;32.06;101213.53;4957356;28;45226;-43
2023/06/16 03:24:16;;;;;;;;;8.50;8.50;;;;;26.91;32.32;101223.94;4957379;28;45401;-44
2023/06/16 03:26:42;;;;;;;;;7.25;7.00;;;;;26.90;32.04;101227.56;4957480;28;45560;-43
2023/06/16 03:29:07;;;;;;;;;8.00;8.00;;;;;26.91;32.36;101234.56;4957174;28;46028;-42
2023/06/16 03:31:33;;;;;;;;;7.50;7.50;;;;;26.91;32.14;101232.75;4957340;28;45350;-43
2023/06/16 03:33:59;;;;;;;;;9.75;9.75;;;;;26.92;32.56;101234.44;4957065;28;47276;-43
2023/06/16 03:36:26;;;;;;;;;8.25;8.25;;;;;26.92;32.15;101236.25;4957628;28;45527;-44
2023/06/16 03:38:52;;;;;;;;;10.50;10.25;;;;;26.89;32.19;101236.50;4957343;28;45507;-43
2023/06/16 03:41:17;;;;;;;;;10.75;9.25;;;;;26.92;32.59;101236.25;4956796;28;46759;-42
2023/06/16 03:43:42;;;;;;;;;7.00;7.00;;;;;26.92;32.35;101239.75;4957296;28;45417;-45
2023/06/16 03:46:08;;;;;;;;;12.75;11.00;;;;;26.91;32.39;101232.75;4957159;28;45544;-45
2023/06/16 03:48:33;;;;;;;;;10.00;9.00;;;;;26.90;32.28;101240.84;4956762;28;45473;-44
2023/06/16 03:51:02;;;;;;;;;12.25;11.50;;;;;26.91;32.30;101237.22;4956835;28;45270;-43
2023/06/16 03:53:28;;;;;;;;;8.25;8.25;;;;;26.90;32.04;101241.69;4957120;28;45236;-42
2023/06/16 03:55:53;;;;;;;;;10.75;9.00;;;;;26.84;32.12;101235.03;4957389;28;45340;-41
2023/06/16 03:58:20;;;;;;;;;9.75;9.75;;;;;26.78;31.88;101224.88;4939397;28;48169;-41
2023/06/16 04:00:45;;;;;;;;;10.75;9.25;;;;;26.76;32.09;101234.72;4939306;28;45327;-43
2023/06/16 04:03:11;;;;;;;;;15.25;11.00;;;;;26.72;32.36;101235.94;4939683;28;45362;-42
2023/06/16 04:05:37;;;;;;;;;8.25;8.25;;;;;26.67;32.04;101225.66;4957051;28;45451;-41
2023/06/16 04:08:02;;;;;;;;;13.25;9.25;;;;;26.62;32.55;101230.47;4956668;28;45953;-42
2023/06/16 04:10:28;;;;;;;;;10.25;10.25;;;;;26.59;32.21;101237.84;4956742;28;46000;-43
2023/06/16 04:12:53;;;;;;;;;10.25;9.25;;;;;26.57;31.88;101237.09;4957319;28;45385;-43
2023/06/16 04:15:19;;;;;;;;;11.50;11.50;;;;;26.55;32.30;101240.72;4956996;28;45329;-44
2023/06/16 04:17:45;;;;;;;;;9.00;9.00;;;;;26.50;32.49;101232.25;4956533;28;45407;-40
2023/06/16 04:20:11;;;;;;;;;10.25;8.75;;;;;26.49;32.32;101240.31;4956652;28;45240;-43
2023/06/16 04:22:45;;;;;;;;;12.75;9.75;;;;;26.46;32.26;101251.22;4956855;28;45339;-45
2023/06/16 04:25:11;;;;;;;;;11.00;9.50;;;;;26.43;32.38;101246.94;4939390;28;45423;-41
2023/06/16 04:27:37;;;;;;;;;8.75;8.00;;;;;26.42;32.63;101247.91;4957022;28;46205;-42
2023/06/16 04:30:05;;;;;;;;;10.50;9.00;;;;;26.39;32.51;101241.00;4959863;28;45685;-42
2023/06/16 04:32:31;;;;;;;;;11.00;10.75;;;;;26.40;32.18;101247.19;4959817;28;45402;-41
2023/06/16 04:34:58;;;;;;;;;9.00;9.00;;;;;26.39;32.29;101250.81;4960421;28;45280;-42
2023/06/16 04:37:23;;;;;;;;;11.50;11.50;;;;;26.37;32.26;101244.75;4926452;28;46959;-41
2023/06/16 04:39:49;;;;;;;;;10.75;9.00;;;;;26.35;32.60;101244.84;4942362;28;45322;-40
2023/06/16 04:42:15;;;;;;;;;12.75;10.50;;;;;26.32;32.82;101252.19;4959617;28;45420;-41
2023/06/16 04:44:41;;;;;;;;;11.75;10.25;;;;;26.35;32.25;101249.31;4959944;28;45278;-42
2023/06/16 04:47:08;;;;;;;;;8.25;8.25;;;;;26.36;32.86;101253.69;4959529;28;46879;-45
2023/06/16 04:49:34;;;;;;;;;11.75;10.50;;;;;26.34;32.56;101245.84;4959584;28;45337;-45
2023/06/16 04:51:59;;;;;;;;;10.50;7.50;;;;;26.36;32.63;101251.03;4959340;28;56692;-43
2023/06/16 04:54:25;;;;;;;;;7.75;7.75;;;;;26.35;32.65;101246.66;4959955;28;45388;-41
2023/06/16 04:56:50;;;;;;;;;13.00;10.25;;;;;26.33;32.41;101249.44;4959591;28;45471;-41
2023/06/16 04:59:16;;;;;;;;;12.25;10.25;;;;;26.34;32.97;101250.28;4959389;28;45335;-43
2023/06/16 05:01:41;;;;;;;;;10.00;8.50;;;;;26.32;32.64;101253.06;4959134;28;45425;-40
2023/06/16 05:04:06;;;;;;;;;9.00;9.00;;;;;26.28;32.59;101237.47;4959511;28;45270;-41
2023/06/16 05:06:36;;;;;;;;;9.00;9.00;;;;;26.29;32.96;101241.81;4959229;28;47386;-42
2023/06/16 05:09:02;;;;;;;;;12.00;10.50;;;;;26.27;33.12;101246.41;4959174;28;45294;-41
2023/06/16 05:11:27;;;;;;;;;12.00;11.00;;;;;26.23;32.97;101237.81;4959802;28;45414;-41
2023/06/16 05:13:53;;;;;;;;;8.00;8.00;;;;;26.23;32.78;101245.78;4941882;28;45491;-42
2023/06/16 05:16:18;;;;;;;;;16.00;14.00;;;;;26.20;32.73;101233.53;4958961;28;50848;-41
2023/06/16 05:18:44;;;;;;;;;12.25;10.50;;;;;26.21;32.58;101229.09;4958872;28;50509;-41
2023/06/16 05:21:09;;;;;;;;;10.25;10.25;;;;;26.21;32.61;101235.25;4959103;28;45453;-48
2023/06/16 05:23:36;;;;;;;;;16.00;11.50;;;;;26.21;33.17;101235.25;4959017;28;45344;-43
2023/06/16 05:26:02;;;;;;;;;10.25;8.50;;;;;26.22;33.17;101241.44;4958925;28;45507;-43
2023/06/16 05:28:27;;;;;;;;;10.50;9.75;;;;;26.23;32.98;101233.34;4959036;28;45431;-43
2023/06/16 05:30:53;;;;;;;;;12.75;11.25;;;;;26.21;32.88;101232.59;4958698;28;45924;-41
2023/06/16 05:33:18;;;;;;;;;12.50;11.50;;;;;26.24;33.10;101239.47;4958931;28;45652;-41
2023/06/16 05:35:43;;;;;;;;;12.00;12.00;;;;;26.23;32.94;101233.34;4958704;28;45176;-41
2023/06/16 05:38:08;;;;;;;;;12.25;12.25;;;;;26.26;32.89;101237.56;4958183;28;56572;-41
2023/06/16 05:40:35;;;;;;;;;11.25;10.25;;;;;26.23;32.67;101238.66;4957618;28;55332;-42
2023/06/16 05:43:00;;;;;;;;;12.25;10.25;;;;;26.26;33.09;101236.72;4941772;28;45489;-41
2023/06/16 05:45:25;;;;;;;;;12.00;11.25;;;;;26.23;33.31;101233.34;4958527;28;46086;-42
2023/06/16 05:47:51;;;;;;;;;12.00;12.00;;;;;26.24;32.84;101232.38;4958571;28;45334;-42
2023/06/16 05:50:16;;;;;;;;;11.75;11.75;;;;;26.23;32.83;101238.66;4941196;28;45208;-41
2023/06/16 05:52:42;;;;;;;;;22.00;15.50;;;;;26.24;33.20;101232.38;4958673;28;45277;-43
2023/06/16 05:55:08;;;;;;;;;19.75;17.00;;;;;26.25;33.15;101235.88;4958346;28;45238;-49
2023/06/16 05:57:33;;;;;;;;;16.75;15.75;;;;;26.24;32.98;101227.06;4958547;28;45513;-41
2023/06/16 05:59:59;;;;;;;;;16.50;14.25;;;;;26.27;33.40;101235.78;4958945;28;45832;-42
2023/06/16 06:02:25;;;;;;;;;16.25;15.50;;;;;26.27;33.06;101231.28;4958449;28;45488;-42
2023/06/16 06:04:50;;;;;;;;;14.75;14.00;;;;;26.28;33.29;101234.81;4941008;28;47393;-43
2023/06/16 06:07:15;;;;;;;;;19.00;15.25;;;;;26.30;33.42;101238.19;4958199;28;45309;-44
2023/06/16 06:09:41;;;;;;;;;19.50;18.00;;;;;26.30;33.07;101235.53;4958386;28;45464;-41
2023/06/16 06:12:08;;;;;;;;;17.00;15.00;;;;;26.31;32.68;101239.88;4958332;28;47410;-44
2023/06/16 06:14:33;;;;;;;;;16.50;15.50;;;;;26.28;33.24;101240.13;4958512;28;46350;-44
2023/06/16 06:16:58;;;;;;;;;19.75;17.75;;;;;26.30;33.37;101239.03;4958191;28;45366;-43
2023/06/16 06:19:24;;;;;;;;;13.75;12.25;;;;;26.30;32.89;101244.34;4958081;28;47370;-47
2023/06/16 06:21:49;;;;;;;;;14.75;14.25;;;;;26.32;33.29;101236.25;4958397;28;45457;-47
2023/06/16 06:24:15;;;;;;;;;15.75;14.00;;;;;26.32;33.26;101238.91;4958126;28;46585;-45
2023/06/16 06:26:41;;;;;;;;;17.50;13.50;;;;;26.34;33.15;101244.97;4958129;28;45560;-43
2023/06/16 06:29:08;;;;;;;;;15.50;13.25;;;;;26.39;33.40;101248.16;4958157;28;45446;-42
2023/06/16 06:31:33;;;;;;;;;28.25;25.00;;;;;26.42;33.50;101252.38;4958660;28;45475;-42
2023/06/16 06:33:58;;;;;;;;;15.00;14.75;;;;;26.43;33.38;101254.09;4957787;28;45369;-44
2023/06/16 06:36:27;;;;;;;;;16.50;15.00;;;;;26.42;32.59;101253.22;4957824;28;45466;-44
2023/06/16 06:38:54;;;;;;;;;20.00;15.50;;;;;26.46;33.22;101260.00;4941276;28;45452;-50
2023/06/16 06:41:21;;;;;;;;;15.00;15.00;;;;;26.43;33.26;101257.56;4958127;28;45521;-50
2023/06/16 06:43:46;;;;;;;;;17.00;14.25;;;;;26.50;33.54;101265.94;4957899;28;46432;-48
2023/06/16 06:46:12;;;;;;;;;16.00;12.75;;;;;26.54;33.23;101262.94;4957810;28;45330;-48
2023/06/16 06:48:37;;;;;;;;;14.50;14.00;;;;;26.49;33.18;101258.94;4958014;28;45255;-49
2023/06/16 06:51:02;;;;;;;;;15.75;14.25;;;;;26.55;33.51;101267.28;4958403;28;45680;-44
2023/06/16 06:53:28;;;;;;;;;19.75;16.00;;;;;26.57;33.53;101269.81;4957696;28;46531;-49
2023/06/16 06:55:53;;;;;;;;;13.25;11.25;;;;;26.61;33.24;101279.28;4957811;28;45396;-45
2023/06/16 06:58:19;;;;;;;;;13.00;13.00;;;;;26.64;33.01;101280.84;4958056;28;45460;-48
2023/06/16 07:00:44;;;;;;;;;14.50;14.00;;;;;26.64;33.38;101281.72;4957723;28;45346;-46
2023/06/16 07:03:11;;;;;;;;;15.00;14.00;;;;;26.61;33.19;101273.13;4957560;28;45378;-46
2023/06/16 07:05:37;;;;;;;;;14.25;12.75;;;;;26.68;33.16;101295.63;4957688;28;45345;-45
2023/06/16 07:08:03;;;;;;;;;15.50;14.50;;;;;26.69;33.24;101292.84;4957688;28;45517;-43
2023/06/16 07:10:29;;;;;;;;;17.50;15.00;;;;;26.72;32.86;101291.78;4957772;28;45674;-45
2023/06/16 07:12:55;;;;;;;;;16.25;15.00;;;;;26.74;33.09;101297.81;4957146;28;46504;-44
2023/06/16 07:15:21;;;;;;;;;16.00;14.25;;;;;26.72;33.06;101291.78;4957348;28;45462;-44
2023/06/16 07:17:46;;;;;;;;;15.00;12.00;;;;;26.75;32.96;101302.16;4957641;28;45330;-46
2023/06/16 07:20:13;;;;;;;;;15.75;15.75;;;;;26.77;33.14;101302.91;4958850;28;45168;-44
2023/06/16 07:22:39;;;;;;;;;14.00;12.00;;;;;26.78;33.00;101301.16;4939984;28;47796;-44
2023/06/16 07:25:05;;;;;;;;;15.25;14.50;;;;;26.80;32.85;101312.50;4957461;28;45418;-46
2023/06/16 07:27:30;;;;;;;;;14.25;13.25;;;;;26.79;32.65;101303.69;4957373;28;45252;-45
2023/06/16 07:29:56;;;;;;;;;15.75;13.75;;;;;26.81;32.58;101304.41;4957553;28;45375;-49
2023/06/16 07:32:21;;;;;;;;;16.75;16.50;;;;;26.78;33.11;101296.66;4957110;28;45423;-46
2023/06/16 07:34:46;;;;;;;;;15.00;12.75;;;;;26.83;33.43;101304.28;4957062;28;45366;-46
2023/06/16 07:37:13;;;;;;;;;15.00;13.50;;;;;26.83;32.93;101305.16;4939652;28;45336;-46
2023/06/16 07:39:39;;;;;;;;;11.75;11.25;;;;;26.84;33.15;101308.66;4957620;28;45244;-44
2023/06/16 07:42:05;;;;;;;;;14.00;13.25;;;;;26.84;32.98;101304.16;4957345;28;45416;-45
2023/06/16 07:44:30;;;;;;;;;15.75;11.25;;;;;26.87;32.97;101304.91;4956922;28;45782;-45
2023/06/16 07:46:55;;;;;;;;;11.50;11.25;;;;;26.88;33.02;101306.59;4956691;28;55793;-44
2023/06/16 07:49:21;;;;;;;;;17.00;15.00;;;;;26.87;32.63;101311.09;4957301;28;45229;-45
2023/06/16 07:51:46;;;;;;;;;15.00;13.00;;;;;26.89;32.76;101306.50;4956900;28;46157;-45
2023/06/16 07:54:11;;;;;;;;;17.25;16.75;;;;;26.91;32.60;101312.53;4956950;28;45294;-42
2023/06/16 07:56:38;;;;;;;;;15.50;15.00;;;;;26.90;32.91;101305.50;4957475;28;45380;-46
2023/06/16 07:59:04;;;;;;;;;14.00;13.00;;;;;26.89;33.25;101303.84;4957196;28;45413;-46
2023/06/16 08:01:30;;;;;;;;;17.75;14.50;;;;;26.92;32.84;101308.91;4956622;28;46228;-45
2023/06/16 08:03:56;;;;;;;;;17.75;16.00;;;;;26.92;32.95;101308.06;4959070;28;45329;-44
2023/06/16 08:06:21;;;;;;;;;15.50;14.75;;;;;26.94;32.66;101308.81;4958926;28;45465;-46
2023/06/16 08:08:47;;;;;;;;;15.50;13.50;;;;;26.94;32.74;101303.50;4960347;28;45386;-45
2023/06/16 08:11:12;;;;;;;;;12.00;11.50;;;;;26.92;32.70;101302.75;4959883;28;46265;-45
2023/06/16 08:13:38;;;;;;;;;15.25;14.00;;;;;26.93;32.50;101297.31;4960473;28;45299;-45
2023/06/16 08:16:05;;;;;;;;;16.00;13.50;;;;;26.94;32.58;101298.19;4960145;28;45287;-45
2023/06/16 08:18:31;;;;;;;;;17.50;16.75;;;;;26.92;32.36;101300.09;4960043;28;45535;-44
2023/06/16 08:20:56;;;;;;;;;14.75;13.25;;;;;26.93;32.53;101299.13;4959872;28;45256;-47
2023/06/16 08:23:21;;;;;;;;;15.00;15.00;;;;;26.94;32.38;101298.19;4959775;28;45228;-43
2023/06/16 08:25:47;;;;;;;;;15.25;13.75;;;;;26.93;32.38;101293.81;4959409;28;53351;-42
2023/06/16 08:28:13;;;;;;;;;17.25;14.25;;;;;26.93;32.62;101289.34;4960185;28;45476;-46
2023/06/16 08:30:39;;;;;;;;;17.50;13.25;;;;;26.92;33.00;101294.78;4942151;28;48047;-48
2023/06/16 08:33:05;;;;;;;;;15.25;14.75;;;;;26.94;32.22;101290.19;4941602;28;45398;-43
2023/06/16 08:35:30;;;;;;;;;13.00;12.00;;;;;26.95;32.58;101291.91;4942327;28;45377;-47
2023/06/16 08:37:56;;;;;;;;;11.50;11.50;;;;;26.91;32.09;101282.44;4959543;28;49766;-46
2023/06/16 08:40:22;;;;;;;;;18.25;15.00;;;;;26.94;32.28;101284.88;4959620;28;46410;-43
2023/06/16 08:42:47;;;;;;;;;12.75;12.50;;;;;26.94;32.08;101284.88;4942270;28;45843;-46
2023/06/16 08:45:14;;;;;;;;;18.75;14.25;;;;;26.94;32.01;101288.38;4959973;28;45436;-44
2023/06/16 08:47:40;;;;;;;;;12.75;12.75;;;;;26.94;32.03;101279.56;4960115;28;45313;-46
2023/06/16 08:50:09;;;;;;;;;11.25;11.25;;;;;26.93;31.86;101283.19;4959591;28;46708;-45
2023/06/16 08:52:42;;;;;;;;;13.00;13.00;;;;;26.96;31.84;101288.25;4959630;28;45327;-45
2023/06/16 08:55:10;;;;;;;;;14.25;14.25;;;;;26.96;31.91;101282.91;4959705;28;45216;-48
2023/06/16 08:57:44;;;;;;;;;15.00;13.75;;;;;26.96;31.59;101277.59;4959782;28;45401;-47
2023/06/16 09:00:10;;;;;;;;;14.25;14.25;;;;;26.96;31.71;101277.59;4959750;28;47573;-44
2023/06/16 09:02:36;;;;;;;;;13.75;12.00;;;;;26.97;31.42;101279.31;4941674;28;45808;-45
2023/06/16 09:05:05;;;;;;;;;15.00;11.25;;;;;26.96;31.25;101273.16;4941982;28;45435;-44
2023/06/16 09:07:31;;;;;;;;;13.25;13.25;;;;;26.94;31.10;101271.59;4959496;28;45310;-44
2023/06/16 09:09:58;;;;;;;;;13.25;13.00;;;;;26.96;30.73;101278.47;4958811;28;55858;-44
2023/06/16 09:12:23;;;;;;;;;11.25;8.50;;;;;26.95;30.91;101270.63;4941622;28;45404;-46
2023/06/16 09:14:50;;;;;;;;;13.75;12.25;;;;;26.95;30.45;101281.25;4958029;28;45374;-45
2023/06/16 09:17:21;;;;;;;;;10.75;10.75;;;;;26.92;30.51;101273.50;4959457;28;45388;-45
2023/06/16 09:19:51;;;;;;;;;14.75;13.75;;;;;26.95;30.48;101267.97;4958317;28;45425;-44
2023/06/16 09:22:26;;;;;;;;;12.00;12.00;;;;;26.95;30.39;101271.44;4959044;28;45857;-44
2023/06/16 09:24:55;;;;;;;;;14.00;12.75;;;;;26.96;30.55;101277.59;4959215;28;45304;-45
2023/06/16 09:27:23;;;;;;;;;12.50;11.00;;;;;26.97;29.92;101274.84;4959522;28;45385;-43
2023/06/16 09:29:58;;;;;;;;;10.00;10.00;;;;;26.97;30.06;101280.16;4958877;28;47458;-45
2023/06/16 09:32:24;;;;;;;;;12.75;11.00;;;;;26.98;29.96;101276.53;4941443;28;45970;-44
2023/06/16 09:34:50;;;;;;;;;11.00;9.00;;;;;26.97;29.62;101269.53;4941556;28;45271;-45
2023/06/16 09:37:19;;;;;;;;;10.00;9.50;;;;;26.98;29.52;101275.69;4959424;28;45365;-44
2023/06/16 09:39:46;;;;;;;;;12.00;10.25;;;;;26.97;29.49;101266.88;4958910;28;46254;-44
2023/06/16 09:42:12;;;;;;;;;10.50;9.75;;;;;26.97;29.52;101269.53;4959064;28;45318;-47
2023/06/16 09:44:39;;;;;;;;;15.00;12.00;;;;;26.99;29.23;101266.75;4958708;28;45279;-47
2023/06/16 09:47:04;;;;;;;;;11.75;11.50;;;;;26.98;29.35;101273.03;4958766;28;45381;-44
2023/06/16 09:49:30;;;;;;;;;11.50;11.00;;;;;27.00;29.22;101265.78;4941295;28;48432;-44
2023/06/16 09:51:58;;;;;;;;;10.50;10.25;;;;;26.99;28.98;101261.41;4958607;28;45504;-44
2023/06/16 09:54:26;;;;;;;;;10.25;10.00;;;;;27.00;28.84;101263.13;4958756;28;45374;-46
2023/06/16 09:56:55;;;;;;;;;10.75;10.75;;;;;27.00;28.82;101263.97;4958731;28;45597;-46
2023/06/16 09:59:23;;;;;;;;;10.25;10.25;;;;;27.00;28.77;101268.44;4958280;28;46291;-44
2023/06/16 10:01:53;;;;;;;;;12.00;9.50;;;;;27.00;28.59;101258.66;4958226;28;45342;-45
2023/06/16 10:04:21;;;;;;;;;13.50;11.00;;;;;26.98;28.80;101259.72;4958559;28;45434;-44
2023/06/16 10:06:53;;;;;;;;;12.00;12.00;;;;;26.99;28.85;101259.63;4958892;28;45624;-45
2023/06/16 10:09:27;;;;;;;;;10.25;10.00;;;;;27.01;28.75;101262.97;4925030;28;48084;-46
2023/06/16 10:11:55;;;;;;;;;9.00;9.00;;;;;27.00;28.47;101261.31;4958401;28;45819;-47
2023/06/16 10:14:27;;;;;;;;;10.00;10.00;;;;;27.01;28.68;101256.84;4958377;28;45346;-44
2023/06/16 10:16:54;;;;;;;;;8.50;8.50;;;;;27.01;28.52;101247.03;4958441;28;45502;-45
2023/06/16 10:19:22;;;;;;;;;10.50;10.00;;;;;27.02;28.30;101261.19;4958012;28;46525;-43
2023/06/16 10:21:49;;;;;;;;;13.25;11.25;;;;;27.02;28.43;101253.22;4958483;28;45814;-47
2023/06/16 10:24:14;;;;;;;;;10.75;10.50;;;;;27.01;28.54;101255.00;4958625;28;45393;-43
2023/06/16 10:26:41;;;;;;;;;9.75;9.75;;;;;27.03;28.25;101254.03;4940475;28;45406;-44
2023/06/16 10:29:07;;;;;;;;;12.25;12.00;;;;;27.02;28.55;101255.88;4940349;28;46449;-42
2023/06/16 10:31:33;;;;;;;;;12.00;12.00;;;;;27.03;28.27;101262.88;4940859;28;45789;-44
2023/06/16 10:33:59;;;;;;;;;11.50;10.25;;;;;27.03;28.42;101254.91;4958040;28;45628;-44
2023/06/16 10:36:29;;;;;;;;;13.25;10.50;;;;;27.03;28.16;101252.25;4958057;28;45417;-44
2023/06/16 10:38:57;;;;;;;;;9.75;9.75;;;;;27.02;27.97;101245.22;4957675;28;46274;-43
2023/06/16 10:41:23;;;;;;;;;10.50;10.50;;;;;27.05;28.02;101247.66;4957951;28;45830;-43
2023/06/16 10:43:49;;;;;;;;;12.00;10.00;;;;;27.07;27.98;101248.38;4958239;28;45387;-44
2023/06/16 10:46:16;;;;;;;;;11.00;11.00;;;;;27.07;28.23;101252.84;4940629;28;45436;-45
2023/06/16 10:48:57;;;;;;;;;11.75;11.75;;;;;27.08;28.01;101254.56;4957723;28;45269;-45
2023/06/16 10:51:44;;;;;;;;;12.50;10.00;;;;;27.05;28.14;101247.66;4957675;28;45412;-44
2023/06/16 10:54:10;;;;;;;;;10.25;10.25;;;;;27.05;27.73;101245.00;4957659;28;45333;-44
2023/06/16 10:57:00;;;;;;;;;12.00;11.50;;;;;27.05;27.96;101252.97;4957920;28;45568;-45
2023/06/16 10:59:25;;;;;;;;;11.00;10.00;;;;;27.06;28.04;101246.69;4957461;28;46907;-44
2023/06/16 11:01:56;;;;;;;;;15.25;13.50;;;;;27.05;27.86;101233.50;4940346;28;45885;-43
2023/06/16 11:04:21;;;;;;;;;12.00;10.75;;;;;27.07;28.03;101240.38;4957991;28;45398;-44
2023/06/16 11:07:07;;;;;;;;;14.00;11.00;;;;;27.08;27.96;101244.75;4957997;28;45303;-45
2023/06/16 11:09:32;;;;;;;;;13.50;12.75;;;;;27.06;27.93;101236.06;4957319;28;46553;-46
2023/06/16 11:11:59;;;;;;;;;15.25;13.00;;;;;27.08;27.93;101233.28;4957403;28;45357;-45
2023/06/16 11:14:25;;;;;;;;;14.50;11.75;;;;;27.08;27.71;101243.91;4957377;28;45298;-46